Time;durP1;ratioP1;P1;durP2;ratioP2;P2;SDS_P1;SDS_P2;PMS_P1;PMS_P2;Temp;Humidity;BMP_temperature;BMP_pressure;BME280_temperature;BME280_humidity;BME280_pressure;Samples;Min_cycle;Max_cycle;Signal;HPM_P1;HPM_P2
2022/11/25 00:01:38;;;;;;;77.60;30.60;;;;;;;1.11;83.55;99782.36;210003;1295;142753;-69
2022/11/25 00:06:42;;;;;;;71.80;31.50;;;;;;;1.17;83.67;99783.70;210182;1294;140356;-69
2022/11/25 00:11:46;;;;;;;96.20;35.70;;;;;;;1.20;84.02;99781.52;210267;1296;140118;-70
2022/11/25 00:16:49;;;;;;;90.30;33.60;;;;;;;1.22;83.76;99778.64;209975;1281;160800;-69
2022/11/25 00:21:53;;;;;;;108.90;38.80;;;;;;;1.20;83.76;99781.36;208601;1288;139390;-70
2022/11/25 00:26:57;;;;;;;97.10;39.30;;;;;;;1.23;83.82;99779.52;207055;1296;142917;-69
2022/11/25 00:32:00;;;;;;;97.90;37.10;;;;;;;1.24;83.91;99777.83;210213;1294;141729;-70
2022/11/25 00:37:03;;;;;;;107.90;39.10;;;;;;;1.27;84.27;99776.64;210140;1290;140456;-70
2022/11/25 00:47:31;;;;;;;106.80;39.50;;;;;;;1.32;84.27;99775.55;208745;1294;142739;-69
2022/11/25 00:52:35;;;;;;;97.30;35.50;;;;;;;1.36;83.98;99779.77;209883;1294;140613;-70
2022/11/25 00:57:39;;;;;;;105.70;38.60;;;;;;;1.37;83.57;99781.31;210096;1297;141098;-70
2022/11/25 01:02:43;;;;;;;103.80;41.40;;;;;;;1.32;84.26;99784.38;210115;1296;141013;-70
2022/11/25 01:07:47;;;;;;;105.30;34.80;;;;;;;1.33;84.18;99783.14;210060;1295;141573;-70
2022/11/25 01:12:50;;;;;;;99.30;36.80;;;;;;;1.39;84.04;99785.75;210231;1297;141159;-70
2022/11/25 01:17:54;;;;;;;104.60;42.50;;;;;;;1.41;83.65;99786.61;210180;1297;141251;-70
2022/11/25 01:22:57;;;;;;;97.70;39.20;;;;;;;1.40;83.90;99800.00;210147;1297;141079;-68
2022/11/25 01:28:01;;;;;;;93.80;36.20;;;;;;;1.37;83.92;99798.61;209919;1297;139924;-67
2022/11/25 01:33:04;;;;;;;103.40;37.70;;;;;;;1.43;84.18;99800.61;209576;1295;140375;-68
2022/11/25 01:38:07;;;;;;;102.60;38.80;;;;;;;1.48;84.18;99804.36;210157;1298;140766;-68
2022/11/25 01:43:14;;;;;;;89.90;35.50;;;;;;;1.48;83.88;99809.48;210130;1297;139699;-67
2022/11/25 01:48:24;;;;;;;103.00;35.80;;;;;;;1.48;83.99;99810.33;210248;1296;140255;-68
2022/11/25 01:53:27;;;;;;;107.20;36.00;;;;;;;1.52;84.06;99809.71;210045;1297;152495;-68
2022/11/25 01:58:34;;;;;;;97.50;36.60;;;;;;;1.56;84.07;99812.88;209726;1298;142521;-67
2022/11/25 02:03:43;;;;;;;111.90;41.20;;;;;;;1.53;83.69;99814.34;208967;1288;139916;-67
2022/11/25 02:08:50;;;;;;;94.20;40.10;;;;;;;1.44;84.04;99808.73;210049;1298;140038;-67
2022/11/25 02:13:56;;;;;;;91.20;31.30;;;;;;;1.42;84.01;99810.10;210110;1297;139870;-68
2022/11/25 02:19:02;;;;;;;92.30;37.10;;;;;;;1.43;84.03;99810.53;210044;1298;140386;-68
2022/11/25 02:24:15;;;;;;;105.40;39.40;;;;;;;1.38;83.78;99821.74;209294;1297;142137;-68
2022/11/25 02:29:19;;;;;;;89.00;35.10;;;;;;;1.32;83.80;99821.41;209419;1295;141146;-67
2022/11/25 02:34:23;;;;;;;90.00;32.80;;;;;;;1.28;84.05;99820.98;210232;1290;140537;-67
2022/11/25 02:39:27;;;;;;;100.30;35.90;;;;;;;1.26;83.99;99827.84;210067;1296;140128;-68
2022/11/25 02:44:31;;;;;;;103.00;35.30;;;;;;;1.31;83.90;99830.77;209923;1300;141302;-67
2022/11/25 02:49:35;;;;;;;115.40;39.80;;;;;;;1.31;84.10;99835.66;210003;1301;139412;-68
2022/11/25 02:54:38;;;;;;;101.10;39.20;;;;;;;1.37;84.57;99840.70;210164;1297;139567;-68
2022/11/25 02:59:42;;;;;;;90.00;35.80;;;;;;;1.42;84.15;99836.77;210150;1297;140516;-68
2022/11/25 03:04:45;;;;;;;109.70;41.00;;;;;;;1.41;83.97;99843.98;209963;1298;140096;-68
2022/11/25 03:09:48;;;;;;;90.30;34.70;;;;;;;1.39;84.01;99846.56;210246;1301;140124;-68
2022/11/25 03:14:52;;;;;;;107.50;36.30;;;;;;;1.35;84.32;99852.71;210031;1296;141437;-68
2022/11/25 03:19:55;;;;;;;108.20;35.70;;;;;;;1.41;84.26;99851.80;210165;1298;139606;-68
2022/11/25 03:24:58;;;;;;;106.50;39.10;;;;;;;1.46;84.19;99854.90;209897;1297;140740;-68
2022/11/25 03:30:03;;;;;;;110.10;37.10;;;;;;;1.39;83.94;99853.67;210003;1298;139640;-68
2022/11/25 03:35:07;;;;;;;109.90;37.30;;;;;;;1.34;84.29;99854.76;208549;1294;140149;-67
2022/11/25 03:40:12;;;;;;;91.80;34.70;;;;;;;1.42;84.66;99858.50;209808;1304;143729;-68
2022/11/25 03:45:15;;;;;;;102.50;34.20;;;;;;;1.49;84.25;99858.20;209346;1288;140121;-67
2022/11/25 03:50:18;;;;;;;104.70;34.20;;;;;;;1.49;84.31;99855.25;209449;1301;141095;-68
2022/11/25 03:55:21;;;;;;;92.50;34.70;;;;;;;1.45;84.44;99855.00;209935;1297;141707;-68
2022/11/25 04:00:24;;;;;;;108.10;33.00;;;;;;;1.38;84.22;99856.32;210248;1296;142747;-67
2022/11/25 04:05:28;;;;;;;103.60;38.50;;;;;;;1.36;84.07;99851.63;210173;1295;140851;-68
2022/11/25 04:10:31;;;;;;;105.70;36.20;;;;;;;1.32;84.01;99850.63;208894;1297;140494;-68
2022/11/25 04:15:35;;;;;;;104.00;39.60;;;;;;;1.28;84.18;99855.27;209881;1300;142448;-68
2022/11/25 04:20:38;;;;;;;94.60;33.50;;;;;;;1.23;84.11;99859.87;209758;1293;141181;-67
2022/11/25 04:25:42;;;;;;;82.60;34.10;;;;;;;1.18;84.17;99861.35;209161;1298;141959;-68
2022/11/25 04:30:45;;;;;;;92.60;31.00;;;;;;;1.18;84.27;99863.81;209586;1293;141339;-67
2022/11/25 04:35:49;;;;;;;85.80;34.90;;;;;;;1.21;84.31;99860.52;210199;1295;140417;-66
2022/11/25 04:40:53;;;;;;;97.20;40.80;;;;;;;1.22;84.39;99865.30;210130;1295;138935;-68
2022/11/25 04:45:57;;;;;;;83.60;32.20;;;;;;;1.16;84.35;99864.02;210229;1302;141199;-68
2022/11/25 04:51:16;;;;;;;82.60;31.60;;;;;;;1.11;84.24;99868.79;210032;1298;142612;-68
2022/11/25 04:56:20;;;;;;;83.10;30.00;;;;;;;1.14;84.49;99872.13;209878;1295;141913;-68
2022/11/25 05:01:23;;;;;;;85.90;35.60;;;;;;;1.17;84.63;99873.89;210260;1297;139838;-67
2022/11/25 05:06:27;;;;;;;79.10;27.90;;;;;;;1.13;84.50;99878.02;210255;1302;140425;-68
2022/11/25 05:11:31;;;;;;;76.70;28.80;;;;;;;1.10;84.52;99883.27;210132;1295;141109;-68
2022/11/25 05:16:34;;;;;;;71.70;28.20;;;;;;;1.13;84.50;99889.16;210053;1300;140543;-67
2022/11/25 05:21:38;;;;;;;62.20;28.60;;;;;;;1.20;84.36;99891.40;210107;1298;140101;-67
2022/11/25 05:26:41;;;;;;;60.70;24.90;;;;;;;1.16;84.40;99897.75;208396;1295;140711;-67
2022/11/25 05:31:45;;;;;;;63.60;26.70;;;;;;;1.14;84.63;99900.48;210140;1294;140485;-68
2022/11/25 05:36:50;;;;;;;73.00;27.60;;;;;;;1.08;84.61;99901.69;210101;1295;140078;-68
2022/11/25 05:41:54;;;;;;;75.80;26.80;;;;;;;1.11;84.77;99902.59;209973;1300;141189;-68
2022/11/25 05:46:57;;;;;;;68.60;28.10;;;;;;;1.22;85.19;99905.56;210067;1298;141567;-68
2022/11/25 05:52:00;;;;;;;60.40;29.60;;;;;;;1.29;84.96;99909.98;209232;1294;140903;-67
2022/11/25 05:57:04;;;;;;;64.00;27.40;;;;;;;1.33;85.03;99911.77;210121;1293;139598;-63
2022/11/25 06:02:08;;;;;;;68.80;28.30;;;;;;;1.36;84.76;99917.09;210045;1300;141063;-64
2022/11/25 06:07:11;;;;;;;67.80;30.80;;;;;;;1.39;84.74;99921.45;210014;1288;141593;-65
2022/11/25 06:12:14;;;;;;;62.20;28.80;;;;;;;1.37;84.71;99925.89;210166;1300;141182;-63
2022/11/25 06:17:18;;;;;;;70.60;25.50;;;;;;;1.36;84.83;99929.90;210158;1287;140153;-65
2022/11/25 06:22:21;;;;;;;62.00;27.00;;;;;;;1.36;84.44;99932.65;210051;1294;140997;-66
2022/11/25 06:27:25;;;;;;;62.70;25.00;;;;;;;1.37;84.51;99935.48;210088;1298;139838;-66
2022/11/25 06:32:37;;;;;;;62.80;28.20;;;;;;;1.34;84.53;99943.69;210205;1300;140445;-67
2022/11/25 06:37:40;;;;;;;55.20;22.90;;;;;;;1.37;85.01;99950.08;209958;1296;140011;-68
2022/11/25 06:42:43;;;;;;;65.50;25.90;;;;;;;1.38;84.66;99953.86;210018;1298;140291;-68
2022/11/25 06:47:47;;;;;;;60.10;27.80;;;;;;;1.47;84.80;99955.73;210100;1297;140645;-67
2022/11/25 06:52:51;;;;;;;73.50;30.30;;;;;;;1.54;84.73;99955.98;210007;1303;141178;-67
2022/11/25 06:57:54;;;;;;;57.50;24.90;;;;;;;1.51;84.16;99959.79;210120;1303;141154;-70
2022/11/25 07:03:18;;;;;;;85.00;31.40;;;;;;;1.46;84.67;99957.31;209971;1303;235051;-67
2022/11/25 07:08:23;;;;;;;82.90;31.00;;;;;;;1.48;84.51;99956.23;209842;1300;140935;-66
2022/11/25 07:13:32;;;;;;;73.40;30.60;;;;;;;1.52;84.71;99957.40;210136;1303;140483;-69
2022/11/25 07:18:37;;;;;;;73.80;29.40;;;;;;;1.52;84.63;99959.55;209746;1297;141174;-67
2022/11/25 07:23:42;;;;;;;82.60;32.10;;;;;;;1.50;84.81;99962.82;209654;1297;139772;-67
2022/11/25 07:28:46;;;;;;;79.50;33.40;;;;;;;1.57;84.57;99963.11;209981;1296;140498;-69
2022/11/25 07:33:59;;;;;;;84.10;34.00;;;;;;;1.64;84.67;99963.85;210047;1296;141633;-67
2022/11/25 07:39:06;;;;;;;86.60;28.20;;;;;;;1.66;84.35;99965.32;208528;1292;141275;-68
2022/11/25 07:44:13;;;;;;;75.80;28.90;;;;;;;1.65;84.51;99972.59;208870;1284;139713;-67
2022/11/25 07:49:23;;;;;;;81.30;34.60;;;;;;;1.72;84.68;99972.30;207652;1288;140780;-68
2022/11/25 07:54:27;;;;;;;105.80;37.40;;;;;;;1.76;84.90;99971.06;206631;1303;140806;-68
2022/11/25 07:59:31;;;;;;;84.20;32.20;;;;;;;1.81;85.11;99977.03;206849;1294;140145;-66
2022/11/25 08:04:35;;;;;;;90.50;33.40;;;;;;;1.81;84.49;99979.37;208373;1294;140504;-68
2022/11/25 08:09:39;;;;;;;96.20;40.20;;;;;;;1.86;84.72;99983.81;210099;1293;140442;-68
2022/11/25 08:14:43;;;;;;;60.00;29.90;;;;;;;1.92;84.80;99985.85;209970;1299;140813;-69
2022/11/25 08:19:47;;;;;;;107.80;39.10;;;;;;;1.96;84.93;99984.95;210123;1298;142218;-67
2022/11/25 08:24:51;;;;;;;87.20;34.50;;;;;;;2.09;85.13;99988.16;209983;1294;140830;-68
2022/11/25 08:29:55;;;;;;;79.80;34.90;;;;;;;2.21;84.99;99992.55;208160;1300;140654;-68
2022/11/25 08:34:59;;;;;;;79.90;32.90;;;;;;;2.21;84.64;99994.33;208558;1296;140498;-68
2022/11/25 08:40:03;;;;;;;84.10;33.00;;;;;;;2.22;84.75;99995.11;210101;1287;141506;-68
2022/11/25 08:45:08;;;;;;;68.40;34.50;;;;;;;2.28;84.43;100000.01;210039;1297;141302;-68
2022/11/25 08:50:13;;;;;;;96.00;40.40;;;;;;;2.26;84.43;99999.59;209929;1297;141312;-68
2022/11/25 08:55:17;;;;;;;87.80;38.40;;;;;;;2.33;84.80;100004.22;209893;1297;141229;-68
2022/11/25 09:00:21;;;;;;;68.80;29.60;;;;;;;2.51;84.88;100011.05;210174;1303;140231;-69
2022/11/25 09:05:25;;;;;;;78.00;35.20;;;;;;;2.64;84.17;100009.88;210059;1294;140194;-68
2022/11/25 09:10:29;;;;;;;62.70;32.50;;;;;;;2.81;84.52;100016.77;210030;1289;141505;-68
2022/11/25 09:15:32;;;;;;;76.60;37.10;;;;;;;2.84;84.35;100021.12;209920;1303;139774;-67
2022/11/25 09:20:40;;;;;;;86.50;40.50;;;;;;;2.89;84.52;100019.80;208048;1281;139995;-66
2022/11/25 09:25:52;;;;;;;80.30;32.80;;;;;;;2.90;84.24;100020.02;206627;1295;141140;-67
2022/11/25 09:30:57;;;;;;;76.00;35.50;;;;;;;2.91;84.07;100018.56;207049;1298;140358;-65
2022/11/25 09:36:02;;;;;;;80.50;39.30;;;;;;;2.91;84.43;100018.56;210059;1294;141196;-66
2022/11/25 09:46:40;;;;;;;75.90;36.60;;;;;;;2.92;84.43;100017.90;209996;1290;142160;-67
2022/11/25 09:47:20;;;;;;;77.10;35.20;;;;;;;2.96;84.04;100015.70;210009;1295;140297;-68
2022/11/25 09:52:46;;;;;;;78.00;38.40;;;;;;;2.96;83.95;100015.86;207536;1297;141887;-67
2022/11/25 09:58:02;;;;;;;56.10;30.60;;;;;;;3.00;84.02;100012.38;206581;1287;139649;-67
2022/11/25 10:03:17;;;;;;;72.20;33.40;;;;;;;3.01;84.02;100010.84;206545;1295;139373;-68
2022/11/25 10:08:25;;;;;;;75.00;35.00;;;;;;;3.07;84.11;100008.70;208434;1288;141287;-67
2022/11/25 10:13:53;;;;;;;74.60;37.20;;;;;;;3.15;84.06;100014.31;207691;1295;140041;-68
2022/11/25 10:19:25;;;;;;;71.10;35.00;;;;;;;3.31;84.41;100011.89;210020;1300;141170;-67
2022/11/25 10:24:29;;;;;;;76.90;35.30;;;;;;;3.49;84.09;100009.97;209938;1295;142137;-69
2022/11/25 10:29:37;;;;;;;75.90;38.50;;;;;;;3.57;83.96;100012.73;207922;1300;140779;-67
2022/11/25 10:34:46;;;;;;;;;;;;;;;3.63;83.78;100013.17;209102;1297;140279;-67
2022/11/25 10:39:51;;;;;;;70.10;36.10;;;;;;;3.57;83.24;100012.13;209856;1304;125841;-67
2022/11/25 10:44:54;;;;;;;76.40;39.30;;;;;;;3.51;83.37;100011.50;207661;1280;140082;-67
2022/11/25 10:50:18;;;;;;;77.30;38.30;;;;;;;3.56;83.82;100009.80;209953;1297;141136;-67
2022/11/25 10:55:25;;;;;;;73.70;35.20;;;;;;;3.67;83.90;100014.64;207455;1292;140523;-68
2022/11/25 11:00:33;;;;;;;81.70;39.00;;;;;;;3.72;83.51;100015.23;209784;1295;349336;-66
2022/11/25 11:05:44;;;;;;;69.20;34.90;;;;;;;3.79;84.08;100013.54;210083;1293;140476;-68
2022/11/25 11:11:17;;;;;;;84.70;38.90;;;;;;;3.89;83.72;100014.44;210151;1297;140710;-68
2022/11/25 11:16:35;;;;;;;75.50;40.70;;;;;;;3.99;83.73;100008.42;209968;1297;236314;-67
2022/11/25 11:21:41;;;;;;;76.60;40.30;;;;;;;4.10;83.84;100008.88;210251;1297;140729;-67
2022/11/25 11:26:44;;;;;;;76.20;39.00;;;;;;;4.12;83.57;100011.84;208391;1303;140539;-67
2022/11/25 11:31:57;;;;;;;74.60;39.40;;;;;;;4.13;83.57;100014.48;208025;1298;221185;-70
2022/11/25 11:37:43;;;;;;;74.40;39.80;;;;;;;4.13;83.60;100022.05;210056;1296;140074;-67
2022/11/25 11:43:24;;;;;;;74.20;38.40;;;;;;;4.13;83.73;100020.08;210104;1301;248723;-67
2022/11/25 11:48:38;;;;;;;58.90;34.20;;;;;;;4.09;83.64;100020.66;210052;1295;236515;-69
2022/11/25 11:53:45;;;;;;;69.20;36.10;;;;;;;4.05;83.78;100021.30;206843;1298;139820;-67
2022/11/25 11:59:16;;;;;;;80.70;35.50;;;;;;;4.01;83.54;100024.92;206780;1288;141300;-67
2022/11/25 12:04:26;;;;;;;75.20;36.90;;;;;;;3.88;83.37;100028.50;208847;1303;140228;-67
2022/11/25 12:09:35;;;;;;;78.20;39.80;;;;;;;3.87;84.05;100035.75;210119;1297;139937;-68
2022/11/25 12:14:50;;;;;;;74.40;36.90;;;;;;;3.93;84.31;100033.52;208700;1295;139860;-66
2022/11/25 12:20:15;;;;;;;71.30;32.80;;;;;;;3.95;84.18;100032.04;210184;1297;140287;-67
2022/11/25 12:25:23;;;;;;;66.50;30.50;;;;;;;3.97;83.98;100031.45;210143;1296;142715;-67
2022/11/25 12:30:39;;;;;;;67.10;32.00;;;;;;;3.97;84.07;100035.30;210201;1295;140062;-67
2022/11/25 12:36:15;;;;;;;74.30;32.40;;;;;;;3.96;84.38;100039.08;210065;1298;139661;-67
2022/11/25 12:41:29;;;;;;;70.10;32.10;;;;;;;3.95;84.34;100040.08;210085;1300;140879;-67
2022/11/25 12:46:46;;;;;;;76.90;35.70;;;;;;;3.95;84.21;100045.88;210227;1297;140507;-67
2022/11/25 12:52:02;;;;;;;58.80;31.30;;;;;;;3.93;84.34;100049.14;209976;1297;140340;-68
2022/11/25 12:57:06;;;;;;;72.30;31.60;;;;;;;3.90;84.21;100044.80;209971;1298;140364;-68
2022/11/25 13:02:40;;;;;;;67.40;32.70;;;;;;;3.90;84.31;100049.14;210034;1304;140870;-68
2022/11/25 13:08:10;;;;;;;81.80;35.70;;;;;;;3.93;84.82;100046.79;209793;1297;244349;-68
2022/11/25 13:13:41;;;;;;;80.20;34.20;;;;;;;3.92;84.55;100055.94;209887;1297;140322;-69
2022/11/25 13:18:45;;;;;;;74.40;32.40;;;;;;;3.94;84.77;100048.98;209827;1297;142213;-66
2022/11/25 13:23:57;;;;;;;76.60;32.20;;;;;;;3.96;84.38;100047.23;209864;1290;162081;-68
2022/11/25 13:29:14;;;;;;;71.20;33.10;;;;;;;4.01;84.89;100049.66;209904;1298;140101;-66
2022/11/25 13:34:20;;;;;;;78.30;34.10;;;;;;;4.02;84.92;100053.45;210092;1297;141162;-68
2022/11/25 13:39:34;;;;;;;77.70;31.40;;;;;;;4.04;84.66;100054.65;209957;1297;141456;-68
2022/11/25 13:45:28;;;;;;;82.00;36.30;;;;;;;4.08;84.85;100045.70;210049;1303;141056;-67
2022/11/25 13:50:32;;;;;;;92.60;37.60;;;;;;;4.05;84.52;100049.71;209982;1295;140660;-69
2022/11/25 13:56:11;;;;;;;67.70;29.50;;;;;;;4.05;84.97;100058.73;210109;1303;140521;-70
2022/11/25 14:01:23;;;;;;;80.80;37.30;;;;;;;4.13;84.92;100054.84;207339;1288;141369;-69
2022/11/25 14:07:16;;;;;;;78.60;35.40;;;;;;;4.12;84.79;100057.35;208168;1297;142003;-68
2022/11/25 14:12:39;;;;;;;82.10;38.60;;;;;;;4.10;84.86;100060.25;210068;1296;139237;-69
2022/11/25 14:18:15;;;;;;;86.50;33.90;;;;;;;4.03;84.76;100065.84;210125;1303;140221;-67
2022/11/25 14:23:45;;;;;;;80.40;36.80;;;;;;;4.07;84.91;100077.27;206897;1295;140548;-68
2022/11/25 14:29:14;;;;;;;85.30;35.90;;;;;;;4.06;84.98;100083.58;207979;1295;142017;-66
2022/11/25 14:34:26;;;;;;;85.20;37.00;;;;;;;3.97;84.87;100084.45;210057;1303;246361;-64
2022/11/25 14:39:38;;;;;;;82.70;31.80;;;;;;;3.90;84.88;100085.30;209956;1297;140637;-68
2022/11/25 14:44:54;;;;;;;118.30;48.20;;;;;;;3.94;85.21;100088.88;209948;1288;140207;-69
2022/11/25 14:50:01;;;;;;;92.60;39.20;;;;;;;4.03;85.33;100090.23;210032;1295;140614;-68
2022/11/25 14:55:29;;;;;;;83.20;34.30;;;;;;;4.06;85.28;100088.77;209830;1297;141190;-68
2022/11/25 15:00:32;;;;;;;82.10;33.30;;;;;;;4.05;85.02;100089.69;209827;1297;140360;-67
2022/11/25 15:05:38;;;;;;;78.50;36.00;;;;;;;4.05;85.02;100094.00;209859;1297;140261;-68
2022/11/25 15:10:51;;;;;;;73.50;34.20;;;;;;;4.04;85.23;100091.41;210045;1304;139801;-68
2022/11/25 15:16:05;;;;;;;87.30;31.90;;;;;;;4.07;85.19;100096.49;210040;1297;140163;-68
2022/11/25 15:21:14;;;;;;;71.60;30.90;;;;;;;4.05;84.56;100096.02;209892;1297;141013;-68
2022/11/25 15:26:21;;;;;;;76.60;34.90;;;;;;;4.03;85.07;100099.56;209879;1297;142052;-69
2022/11/25 15:31:29;;;;;;;75.30;32.90;;;;;;;3.99;85.01;100102.64;209952;1298;140500;-69
2022/11/25 15:36:33;;;;;;;72.70;28.10;;;;;;;4.00;85.10;100103.06;209836;1297;141295;-68
2022/11/25 15:41:41;;;;;;;71.90;32.10;;;;;;;4.01;84.85;100104.73;210046;1301;140991;-69
2022/11/25 15:46:58;;;;;;;80.90;31.20;;;;;;;3.99;85.25;100101.10;207370;1287;140465;-67
2022/11/25 15:52:08;;;;;;;71.60;26.90;;;;;;;4.00;85.29;100103.22;208256;1288;139667;-69
2022/11/25 15:57:23;;;;;;;73.80;31.10;;;;;;;4.08;85.34;100108.02;207693;1302;140548;-68
2022/11/25 16:02:38;;;;;;;73.00;33.70;;;;;;;4.11;85.48;100107.14;206786;1288;140053;-68
2022/11/25 16:07:51;;;;;;;84.50;37.20;;;;;;;4.11;85.62;100114.52;206697;1288;139567;-68
2022/11/25 16:13:17;;;;;;;75.90;35.50;;;;;;;4.12;85.33;100117.35;208535;1290;141582;-68
2022/11/25 16:18:53;;;;;;;83.60;36.50;;;;;;;4.09;85.21;100113.11;206985;1295;140257;-68
2022/11/25 16:24:34;;;;;;;74.80;35.10;;;;;;;3.98;85.18;100111.45;206539;1295;140399;-68
2022/11/25 16:29:47;;;;;;;78.00;30.40;;;;;;;3.91;85.42;100116.52;208153;1284;244607;-66
2022/11/25 16:34:54;;;;;;;93.90;38.40;;;;;;;3.98;85.67;100113.05;210099;1297;140738;-68
2022/11/25 16:39:58;;;;;;;98.60;38.20;;;;;;;4.02;85.54;100110.92;210225;1295;139750;-68
2022/11/25 16:45:02;;;;;;;101.20;41.90;;;;;;;3.99;85.37;100116.73;209814;1297;140006;-67
2022/11/25 16:50:15;;;;;;;94.60;39.50;;;;;;;4.02;85.75;100121.15;209887;1297;140632;-69
2022/11/25 16:55:19;;;;;;;108.80;48.10;;;;;;;4.05;85.18;100122.36;209787;1295;144646;-68
2022/11/25 17:00:22;;;;;;;84.00;40.50;;;;;;;3.92;84.98;100126.98;209943;1297;141245;-67
2022/11/25 17:05:26;;;;;;;100.20;39.20;;;;;;;3.80;85.14;100130.98;209816;1296;139698;-66
2022/11/25 17:10:29;;;;;;;101.20;43.00;;;;;;;3.84;85.19;100136.66;210006;1286;140967;-67
2022/11/25 17:15:35;;;;;;;79.60;38.50;;;;;;;3.72;84.87;100139.68;209866;1297;142449;-68
2022/11/25 17:20:38;;;;;;;75.70;39.60;;;;;;;3.59;84.94;100147.23;209939;1294;142847;-66
2022/11/25 17:25:48;;;;;;;85.10;39.50;;;;;;;3.50;84.89;100152.61;210192;1297;142563;-67
2022/11/25 17:30:57;;;;;;;98.90;53.30;;;;;;;3.46;84.91;100151.00;209496;1294;140964;-63
2022/11/25 17:36:05;;;;;;;88.70;42.20;;;;;;;3.45;85.22;100149.92;209860;1280;140817;-65
2022/11/25 17:41:13;;;;;;;109.50;46.20;;;;;;;3.38;85.45;100154.72;209812;1296;140498;-64
2022/11/25 17:46:17;;;;;;;88.50;44.90;;;;;;;3.40;85.66;100155.77;209958;1297;224555;-66
2022/11/25 17:51:21;;;;;;;90.80;43.60;;;;;;;3.49;85.70;100156.31;209829;1298;140871;-68
2022/11/25 17:56:28;;;;;;;101.10;43.00;;;;;;;3.52;85.66;100156.61;209750;1297;143658;-68
2022/11/25 18:01:32;;;;;;;99.60;45.50;;;;;;;3.55;85.86;100160.71;208879;1296;140011;-67
2022/11/25 18:06:36;;;;;;;89.80;44.70;;;;;;;3.57;85.81;100170.94;210012;1294;140308;-67
2022/11/25 18:11:43;;;;;;;99.50;45.90;;;;;;;3.62;85.77;100175.35;210135;1297;141626;-67
2022/11/25 18:16:49;;;;;;;85.90;42.40;;;;;;;3.66;85.96;100173.43;210015;1288;140725;-68
2022/11/25 18:22:08;;;;;;;98.80;48.30;;;;;;;3.66;85.77;100178.16;210029;1298;220109;-68
2022/11/25 18:27:31;;;;;;;;;;;;;;;3.64;85.81;100181.27;210084;1296;140593;-68
2022/11/25 18:32:35;;;;;;;100.80;47.60;;;;;;;3.64;85.60;100184.69;207612;1288;126742;-68
2022/11/25 18:37:39;;;;;;;84.40;45.50;;;;;;;3.59;85.62;100185.28;206877;1294;141580;-67
2022/11/25 18:42:47;;;;;;;88.40;45.70;;;;;;;3.51;85.82;100185.42;206763;1288;140375;-68
2022/11/25 18:47:51;;;;;;;95.80;45.70;;;;;;;3.49;86.03;100193.41;206864;1293;141403;-68
2022/11/25 18:52:55;;;;;;;90.10;45.20;;;;;;;3.49;85.82;100193.86;209916;1287;141048;-69
2022/11/25 18:58:00;;;;;;;104.00;48.60;;;;;;;3.47;85.79;100195.37;210282;1295;140358;-68
2022/11/25 19:03:03;;;;;;;91.60;49.80;;;;;;;3.44;85.97;100193.41;209890;1304;141249;-69
2022/11/25 19:08:08;;;;;;;90.40;44.40;;;;;;;3.45;86.16;100193.50;210163;1294;140031;-68
2022/11/25 19:13:20;;;;;;;100.00;50.20;;;;;;;3.56;86.21;100200.92;207818;1298;142308;-68
2022/11/25 19:18:26;;;;;;;104.00;49.80;;;;;;;3.61;86.32;100205.60;206756;1290;140368;-67
2022/11/25 19:23:30;;;;;;;100.30;51.30;;;;;;;3.61;86.28;100206.23;210077;1295;142434;-68
2022/11/25 19:28:33;;;;;;;92.70;44.10;;;;;;;3.56;86.09;100206.11;208754;1297;140819;-67
2022/11/25 19:33:40;;;;;;;107.70;49.50;;;;;;;3.65;86.33;100214.63;209440;1295;140514;-68
2022/11/25 19:38:43;;;;;;;99.90;54.30;;;;;;;3.74;86.29;100221.71;208572;1297;141370;-67
2022/11/25 19:43:47;;;;;;;105.10;49.20;;;;;;;3.71;86.46;100221.80;207623;1296;140936;-68
2022/11/25 19:48:55;;;;;;;84.30;42.20;;;;;;;3.75;86.55;100224.38;209179;1293;141376;-69
2022/11/25 19:53:59;;;;;;;103.00;45.80;;;;;;;3.75;85.96;100224.94;209843;1283;140360;-68
2022/11/25 19:59:03;;;;;;;88.30;41.90;;;;;;;3.65;85.82;100223.27;209940;1297;140632;-69
2022/11/25 20:04:15;;;;;;;107.10;55.40;;;;;;;3.57;86.27;100225.84;206849;1288;140989;-67
2022/11/25 20:09:19;;;;;;;97.80;50.00;;;;;;;3.61;86.30;100229.59;206790;1295;141043;-67
2022/11/25 20:14:25;;;;;;;101.20;48.70;;;;;;;3.67;86.55;100236.58;206740;1297;140346;-68
2022/11/25 20:19:29;;;;;;;107.40;50.10;;;;;;;3.77;86.86;100246.42;206717;1295;140619;-68
2022/11/25 20:24:37;;;;;;;112.40;52.10;;;;;;;3.76;86.94;100246.86;210124;1296;244432;-68
2022/11/25 20:29:41;;;;;;;117.20;54.20;;;;;;;3.81;86.74;100253.61;209943;1295;140024;-68
2022/11/25 20:34:46;;;;;;;112.50;56.80;;;;;;;3.83;86.52;100259.36;210107;1297;140080;-67
2022/11/25 20:39:55;;;;;;;103.80;49.90;;;;;;;3.83;86.68;100267.60;209994;1297;140987;-68
2022/11/25 20:44:59;;;;;;;90.20;41.00;;;;;;;3.87;86.63;100268.68;210094;1293;141301;-68
2022/11/25 20:50:03;;;;;;;81.60;45.60;;;;;;;3.96;86.71;100271.48;209942;1295;141756;-68
2022/11/25 20:55:22;;;;;;;95.00;41.20;;;;;;;3.98;86.23;100270.59;210048;1288;140792;-68
2022/11/25 21:00:27;;;;;;;92.30;46.20;;;;;;;3.87;86.17;100270.86;209892;1301;141901;-68
2022/11/25 21:05:31;;;;;;;76.70;36.90;;;;;;;3.85;86.38;100271.48;210078;1297;141802;-68
2022/11/25 21:10:36;;;;;;;105.10;47.90;;;;;;;3.97;86.53;100276.20;210305;1297;142144;-68
2022/11/25 21:15:39;;;;;;;93.30;47.80;;;;;;;4.03;86.85;100274.56;209022;1284;140529;-67
2022/11/25 21:20:44;;;;;;;96.60;48.50;;;;;;;4.04;86.54;100277.23;207058;1291;140949;-68
2022/11/25 21:25:49;;;;;;;89.90;42.50;;;;;;;4.00;86.45;100274.79;210054;1298;141647;-68
2022/11/25 21:30:53;;;;;;;108.80;49.20;;;;;;;3.99;86.35;100284.48;209951;1295;140745;-68
2022/11/25 21:35:58;;;;;;;98.90;49.70;;;;;;;4.01;86.53;100285.85;209468;1297;142756;-68
2022/11/25 21:41:02;;;;;;;102.20;49.80;;;;;;;4.02;86.66;100292.95;209294;1295;140222;-68
2022/11/25 21:46:13;;;;;;;91.70;44.80;;;;;;;4.03;86.68;100298.01;210317;1295;140774;-68
2022/11/25 21:51:20;;;;;;;98.60;46.50;;;;;;;4.06;86.43;100301.45;209313;1288;140615;-69
2022/11/25 21:56:34;;;;;;;92.70;49.20;;;;;;;4.05;86.65;100307.76;209722;1294;140507;-68
2022/11/25 22:01:38;;;;;;;92.10;42.30;;;;;;;4.05;86.74;100316.65;206550;1295;140341;-67
2022/11/25 22:06:42;;;;;;;103.20;53.50;;;;;;;4.09;86.48;100322.23;209972;1294;141148;-68
2022/11/25 22:11:49;;;;;;;103.70;48.50;;;;;;;4.10;86.76;100320.54;208965;1301;140612;-69
2022/11/25 22:16:52;;;;;;;108.60;57.90;;;;;;;4.18;86.82;100318.92;210070;1292;140402;-69
2022/11/25 22:21:56;;;;;;;101.50;48.10;;;;;;;4.11;86.64;100312.36;209063;1300;141249;-67
2022/11/25 22:27:02;;;;;;;112.10;53.80;;;;;;;4.15;86.80;100320.90;206745;1303;140991;-67
2022/11/25 22:32:08;;;;;;;99.60;52.80;;;;;;;4.16;86.68;100327.55;206667;1304;141147;-67
2022/11/25 22:37:17;;;;;;;113.20;52.70;;;;;;;4.17;87.02;100331.46;206811;1297;140353;-67
2022/11/25 22:42:27;;;;;;;113.10;54.30;;;;;;;4.21;86.84;100324.34;206875;1289;141016;-68
2022/11/25 22:47:38;;;;;;;109.80;52.30;;;;;;;4.21;86.75;100325.89;206710;1291;141147;-67
2022/11/25 22:52:42;;;;;;;122.90;61.00;;;;;;;4.24;87.19;100327.55;209524;1300;139964;-68
2022/11/25 22:57:47;;;;;;;112.80;52.70;;;;;;;4.26;87.07;100332.91;210196;1290;139542;-67
2022/11/25 23:02:54;;;;;;;108.20;51.80;;;;;;;4.35;87.19;100337.66;209834;1301;304795;-68
2022/11/25 23:07:59;;;;;;;115.50;54.00;;;;;;;4.36;87.06;100340.08;210026;1296;140545;-68
2022/11/25 23:13:02;;;;;;;123.50;52.70;;;;;;;4.35;87.08;100343.83;210081;1295;140043;-68